Time;durP1;ratioP1;P1;durP2;ratioP2;P2;SDS_P1;SDS_P2;PMS_P1;PMS_P2;Temp;Humidity;BMP_temperature;BMP_pressure;BME280_temperature;BME280_humidity;BME280_pressure;Samples;Min_cycle;Max_cycle;Signal;HPM_P1;HPM_P2
2022/11/07 00:03:24;;;;;;;;;;;;;;;16.61;47.11;95601.69;10540193;28;1160;-52
2022/11/07 00:08:30;;;;;;;;;;;;;;;16.62;47.07;95606.66;10536165;28;1910;-51
2022/11/07 00:13:30;;;;;;;;;;;;;;;16.63;47.11;95607.47;10541303;28;1156;-53
2022/11/07 00:18:31;;;;;;;;;;;;;;;16.60;47.08;95616.59;10537746;28;1619;-53
2022/11/07 00:23:31;;;;;;;;;;;;;;;16.59;47.11;95615.00;10540090;28;1139;-51
2022/11/07 00:28:32;;;;;;;;;;;;;;;16.63;47.02;95616.09;10535963;28;1905;-52
2022/11/07 00:33:32;;;;;;;;;;;;;;;16.61;47.10;95614.78;10539217;28;1512;-50
2022/11/07 00:38:33;;;;;;;;;;;;;;;16.59;47.09;95619.47;10531876;28;1473;-50
2022/11/07 00:43:33;;;;;;;;;;;;;;;16.59;47.22;95630.72;10539994;28;1332;-52
2022/11/07 00:48:34;;;;;;;;;;;;;;;16.59;47.11;95635.19;10534614;28;1980;-48
2022/11/07 00:53:34;;;;;;;;;;;;;;;16.59;47.11;95635.19;10546398;28;1104;-51
2022/11/07 00:58:34;;;;;;;;;;;;;;;16.58;47.16;95644.84;10541059;28;1646;-51
2022/11/07 01:08:53;;;;;;;;;;;;;;;16.61;47.11;95649.56;10532186;28;1967;-52
2022/11/07 01:13:57;;;;;;;;;;;;;;;16.57;47.05;95648.50;10536886;28;1180;-50
2022/11/07 01:18:57;;;;;;;;;;;;;;;16.56;47.21;95661.84;10534171;28;1623;-52
2022/11/07 01:23:59;;;;;;;;;;;;;;;16.62;46.98;95658.22;10537213;28;1116;-51
2022/11/07 01:28:59;;;;;;;;;;;;;;;16.62;46.82;95666.06;10533525;28;1979;-53
2022/11/07 01:33:59;;;;;;;;;;;;;;;16.55;47.09;95663.66;10536660;28;1151;-53
2022/11/07 01:39:00;;;;;;;;;;;;;;;16.59;47.00;95672.56;10532774;28;1568;-51
2022/11/07 01:44:23;;;;;;;;;;;;;;;16.60;46.91;95668.13;10534929;28;1120;-50
2022/11/07 01:49:27;;;;;;;;;;;;;;;16.55;47.07;95675.97;10529229;28;1910;-53
2022/11/07 01:54:51;;;;;;;;;;;;;;;16.53;47.25;95678.81;10534054;28;1635;-50
2022/11/07 01:59:55;;;;;;;;;;;;;;;16.59;47.00;95682.28;10549645;27;1453;-49
2022/11/07 02:04:55;;;;;;;;;;;;;;;16.54;46.99;95671.75;10510713;28;1585;-52
2022/11/07 02:09:56;;;;;;;;;;;;;;;16.53;46.93;95688.47;10531522;28;1914;-50
2022/11/07 02:14:56;;;;;;;;;;;;;;;16.57;46.97;95686.97;10533687;28;1186;-53
2022/11/07 02:19:56;;;;;;;;;;;;;;;16.59;46.92;95688.28;10532578;28;1663;-53
2022/11/07 02:24:57;;;;;;;;;;;;;;;16.54;47.03;95677.78;10535018;28;1186;-51
2022/11/07 02:29:59;;;;;;;;;;;;;;;16.55;47.17;95675.97;10530933;28;1898;-49
2022/11/07 02:35:01;;;;;;;;;;;;;;;16.55;46.89;95665.50;10533086;28;1140;-54
2022/11/07 02:40:03;;;;;;;;;;;;;;;16.51;47.01;95670.44;10531279;28;1694;-52
2022/11/07 02:45:03;;;;;;;;;;;;;;;16.53;47.03;95672.78;10541606;28;1132;-51
2022/11/07 02:50:08;;;;;;;;;;;;;;;16.52;47.10;95673.84;10541634;28;1902;-53
2022/11/07 02:55:08;;;;;;;;;;;;;;;16.49;47.01;95679.53;10538429;28;1655;-49
2022/11/07 03:00:09;;;;;;;;;;;;;;;16.54;46.89;95675.16;10541056;28;1184;-47
2022/11/07 03:05:10;;;;;;;;;;;;;;;16.53;46.79;95678.00;10535079;28;1599;-53
2022/11/07 03:10:10;;;;;;;;;;;;;;;16.53;46.95;95675.41;10540879;28;1907;-50
2022/11/07 03:15:10;;;;;;;;;;;;;;;16.53;46.84;95673.56;10541246;28;1135;-50
2022/11/07 03:20:11;;;;;;;;;;;;;;;16.48;47.03;95678.75;10539214;28;1662;-53
2022/11/07 03:25:11;;;;;;;;;;;;;;;16.50;47.04;95686.38;10541244;28;929;-54
2022/11/07 03:30:12;;;;;;;;;;;;;;;16.51;46.94;95680.88;10543640;28;1973;-52
2022/11/07 03:35:12;;;;;;;;;;;;;;;16.52;46.84;95689.53;10545363;28;1145;-53
2022/11/07 03:40:13;;;;;;;;;;;;;;;16.55;46.81;95689.81;10539728;28;1703;-52
2022/11/07 03:45:13;;;;;;;;;;;;;;;16.48;46.97;95698.88;10552261;28;1080;-52
2022/11/07 03:50:14;;;;;;;;;;;;;;;16.51;46.86;95708.88;10547737;28;1906;-52
2022/11/07 03:55:16;;;;;;;;;;;;;;;16.49;46.87;95703.91;10540882;28;988;-53
2022/11/07 04:00:17;;;;;;;;;;;;;;;16.53;46.79;95701.56;10533404;28;1631;-53
2022/11/07 04:05:18;;;;;;;;;;;;;;;16.50;46.81;95704.69;10532520;28;1688;-50
2022/11/07 04:10:18;;;;;;;;;;;;;;;16.50;46.96;95720.41;10536969;28;1913;-49
2022/11/07 04:20:38;;;;;;;;;;;;;;;16.51;46.84;95719.34;10534476;28;1548;-48
2022/11/07 04:30:57;;;;;;;;;;;;;;;16.48;46.88;95722.44;10539127;28;1910;-51
2022/11/07 04:35:57;;;;;;;;;;;;;;;16.46;46.96;95720.06;10535806;28;1528;-52
2022/11/07 04:40:57;;;;;;;;;;;;;;;16.45;46.79;95720.31;10536287;28;1643;-52
2022/11/07 04:45:57;;;;;;;;;;;;;;;16.50;46.87;95738.72;10535422;28;1575;-51
2022/11/07 04:50:58;;;;;;;;;;;;;;;16.52;46.77;95732.19;10534973;28;1987;-52
2022/11/07 04:55:58;;;;;;;;;;;;;;;16.48;46.84;95732.91;10529151;28;1687;-53
2022/11/07 05:00:59;;;;;;;;;;;;;;;16.45;46.93;95723.72;10537323;28;1135;-54
2022/11/07 05:05:59;;;;;;;;;;;;;;;16.46;46.85;95734.97;10533788;28;1674;-50
2022/11/07 05:10:59;;;;;;;;;;;;;;;16.46;46.86;95746.25;10534726;28;1906;-50
2022/11/07 05:16:05;;;;;;;;;;;;;;;16.48;46.78;95738.13;10537816;28;853;-49
2022/11/07 05:21:05;;;;;;;;;;;;;;;16.44;46.92;95745.69;10533013;28;1579;-52
2022/11/07 05:26:06;;;;;;;;;;;;;;;16.47;46.92;95749.63;10535741;28;1635;-52
2022/11/07 05:31:06;;;;;;;;;;;;;;;16.46;46.85;95755.91;10535955;28;1977;-51
2022/11/07 05:36:10;;;;;;;;;;;;;;;16.47;46.85;95757.47;10532816;28;1464;-51
2022/11/07 05:41:12;;;;;;;;;;;;;;;16.45;46.89;95767.41;10534383;28;1409;-49
2022/11/07 05:46:13;;;;;;;;;;;;;;;16.44;46.95;95758.78;10536247;28;983;-50
2022/11/07 05:51:13;;;;;;;;;;;;;;;16.46;46.93;95767.16;10533531;28;1959;-52
2022/11/07 05:56:13;;;;;;;;;;;;;;;16.48;46.91;95775.56;10531389;28;1651;-50
2022/11/07 06:01:13;;;;;;;;;;;;;;;16.42;47.04;95773.13;10535309;28;1104;-52
2022/11/07 06:06:14;;;;;;;;;;;;;;;16.44;46.96;95773.69;10529579;28;1655;-51
2022/11/07 06:11:14;;;;;;;;;;;;;;;16.42;47.01;95776.56;10532959;28;1675;-52
2022/11/07 06:16:14;;;;;;;;;;;;;;;16.44;46.81;95784.94;10534033;28;973;-50
2022/11/07 06:21:15;;;;;;;;;;;;;;;16.43;46.95;95785.97;10530782;28;1671;-50
2022/11/07 06:26:16;;;;;;;;;;;;;;;16.44;46.86;95790.19;10531033;28;1913;-52
2022/11/07 06:31:16;;;;;;;;;;;;;;;16.46;46.91;95782.06;10538839;28;1147;-52
2022/11/07 06:36:16;;;;;;;;;;;;;;;16.43;46.89;95787.78;10537825;28;1445;-50
2022/11/07 06:41:16;;;;;;;;;;;;;;;16.46;46.86;95789.91;10535134;28;1667;-47
2022/11/07 06:46:18;;;;;;;;;;;;;;;16.46;46.92;95797.78;10533050;28;1973;-52
2022/11/07 06:51:18;;;;;;;;;;;;;;;16.39;47.08;95799.78;10527096;28;1077;-50
2022/11/07 06:56:19;;;;;;;;;;;;;;;16.46;46.78;95813.47;10531883;28;1679;-52
2022/11/07 07:01:19;;;;;;;;;;;;;;;16.44;46.84;95823.38;10534545;28;1252;-54
2022/11/07 07:06:19;;;;;;;;;;;;;;;16.41;46.88;95824.66;10528523;28;1957;-50
2022/11/07 07:11:20;;;;;;;;;;;;;;;16.47;46.86;95821.06;10520269;28;1541;-51
2022/11/07 07:16:20;;;;;;;;;;;;;;;16.43;46.94;95825.22;10529383;28;2192;-51
2022/11/07 07:21:21;;;;;;;;;;;;;;;16.46;46.93;95829.16;10531627;28;1489;-52
2022/11/07 07:26:21;;;;;;;;;;;;;;;16.48;47.09;95834.94;10531181;28;1910;-52
2022/11/07 07:31:27;;;;;;;;;;;;;;;16.51;47.14;95827.41;10532329;28;1720;-52
2022/11/07 07:36:28;;;;;;;;;;;;;;;16.60;47.21;95833.00;10528304;28;1606;-52
2022/11/07 07:41:28;;;;;;;;;;;;;;;16.75;47.07;95835.78;10524558;28;1823;-52
2022/11/07 07:46:28;;;;;;;;;;;;;;;16.89;46.91;95834.34;10528133;28;1902;-50
2022/11/07 07:51:28;;;;;;;;;;;;;;;16.97;47.07;95831.28;10523665;28;2008;-50
2022/11/07 07:56:29;;;;;;;;;;;;;;;17.04;47.18;95827.41;10530075;28;2133;-52
2022/11/07 08:01:29;;;;;;;;;;;;;;;17.04;46.88;95834.50;10527998;28;1858;-51
2022/11/07 08:06:39;;;;;;;;;;;;;;;17.14;46.81;95825.94;10530656;28;1914;-48
2022/11/07 08:11:40;;;;;;;;;;;;;;;17.24;46.87;95837.28;10525070;28;1866;-47
2022/11/07 08:16:40;;;;;;;;;;;;;;;17.29;46.82;95829.44;10528728;28;2180;-49
2022/11/07 08:21:42;;;;;;;;;;;;;;;17.36;46.80;95831.84;10526202;28;1736;-50
2022/11/07 08:26:43;;;;;;;;;;;;;;;17.47;46.94;95834.31;10513928;28;2005;-50
2022/11/07 08:31:43;;;;;;;;;;;;;;;17.59;47.25;95834.16;10529497;28;1760;-50
2022/11/07 08:36:43;;;;;;;;;;;;;;;17.65;47.45;95844.44;10527399;28;1844;-50
2022/11/07 08:41:44;;;;;;;;;;;;;;;17.78;47.45;95848.44;10525942;28;1772;-51
2022/11/07 08:46:44;;;;;;;;;;;;;;;17.80;47.60;95847.13;10525041;28;1969;-52
2022/11/07 08:51:45;;;;;;;;;;;;;;;17.91;47.55;95847.97;10512288;28;1893;-51
2022/11/07 08:56:46;;;;;;;;;;;;;;;17.93;47.58;95850.38;10502108;28;1955;-50
2022/11/07 09:01:47;;;;;;;;;;;;;;;18.02;47.60;95852.25;10499293;28;1959;-51
2022/11/07 09:06:47;;;;;;;;;;;;;;;18.04;47.70;95850.16;10510668;28;1977;-50
2022/11/07 09:11:47;;;;;;;;;;;;;;;18.09;47.85;95844.94;10503014;28;1959;-49
2022/11/07 09:16:48;;;;;;;;;;;;;;;18.23;48.43;95850.50;10507337;28;2067;-47
2022/11/07 09:21:48;;;;;;;;;;;;;;;18.34;48.87;95849.53;10509594;28;1994;-51
2022/11/07 09:26:48;;;;;;;;;;;;;;;18.44;48.94;95852.97;10487922;28;2007;-51
2022/11/07 09:31:49;;;;;;;;;;;;;;;18.48;49.15;95858.53;10514924;28;1919;-48
2022/11/07 09:36:49;;;;;;;;;;;;;;;18.55;49.02;95857.22;10509291;28;1939;-50
2022/11/07 09:42:09;;;;;;;;;;;;;;;18.62;49.18;95864.88;10496816;28;2179;-50
2022/11/07 09:47:09;;;;;;;;;;;;;;;18.69;49.08;95862.81;10499929;28;2065;-50
2022/11/07 09:52:28;;;;;;;;;;;;;;;18.73;49.25;95863.84;10496217;28;1963;-48
2022/11/07 09:57:31;;;;;;;;;;;;;;;18.77;49.11;95857.03;10516953;28;2023;-49
2022/11/07 10:02:32;;;;;;;;;;;;;;;18.81;48.98;95855.47;10511050;28;2156;-49
2022/11/07 10:07:40;;;;;;;;;;;;;;;18.86;48.79;95847.59;10505979;28;2085;-50
2022/11/07 10:12:57;;;;;;;;;;;;;;;18.94;48.90;95857.59;10503380;28;1963;-49
2022/11/07 10:23:20;;;;;;;;;;;;;;;19.03;48.98;95857.88;10511900;28;1944;-50
2022/11/07 10:28:23;;;;;;;;;;;;;;;19.06;48.86;95852.88;10510329;28;1985;-50
2022/11/07 10:33:23;;;;;;;;;;;;;;;19.09;49.36;95852.34;10503033;28;1952;-50
2022/11/07 10:38:33;;;;;;;;;;;;;;;19.12;49.62;95849.22;10516915;28;1992;-49
2022/11/07 10:43:34;;;;;;;;;;;;;;;19.08;49.77;95848.13;10515253;28;1936;-51
2022/11/07 10:48:37;;;;;;;;;;;;;;;19.11;49.97;95850.25;10520738;28;1942;-51
2022/11/07 10:53:41;;;;;;;;;;;;;;;19.14;49.96;95851.59;10518093;28;1923;-52
2022/11/07 10:58:42;;;;;;;;;;;;;;;19.09;49.44;95849.72;10511458;28;1987;-50
2022/11/07 11:03:44;;;;;;;;;;;;;;;19.07;49.97;95851.84;10525497;28;2129;-51
2022/11/07 11:08:44;;;;;;;;;;;;;;;19.09;49.65;95849.72;10518001;28;1913;-49
2022/11/07 11:13:45;;;;;;;;;;;;;;;19.10;50.57;95848.66;10519610;28;2016;-50
2022/11/07 11:18:48;;;;;;;;;;;;;;;19.13;51.73;95840.28;10516732;28;2571;-50
2022/11/07 11:23:49;;;;;;;;;;;;;;;19.17;51.67;95843.16;10513982;28;1934;-52
2022/11/07 11:28:51;;;;;;;;;;;;;;;19.16;52.32;95844.22;10519107;28;2194;-50
2022/11/07 11:33:59;;;;;;;;;;;;;;;19.19;52.83;95844.47;10533687;28;1845;-51
2022/11/07 11:38:59;;;;;;;;;;;;;;;19.19;52.64;95838.44;10527413;28;1605;-51
2022/11/07 11:44:02;;;;;;;;;;;;;;;19.19;52.26;95823.47;10535706;28;1433;-52
2022/11/07 11:49:12;;;;;;;;;;;;;;;19.22;53.23;95825.56;10536818;28;1905;-52
2022/11/07 11:54:13;;;;;;;;;;;;;;;19.24;52.55;95817.41;10527346;28;1838;-52
2022/11/07 11:59:13;;;;;;;;;;;;;;;19.28;53.85;95810.59;10530959;28;1632;-52
2022/11/07 12:04:19;;;;;;;;;;;;;;;19.28;52.96;95808.75;10522671;28;1872;-52
2022/11/07 12:09:19;;;;;;;;;;;;;;;19.29;54.22;95820.03;10534821;28;1977;-50
2022/11/07 12:14:23;;;;;;;;;;;;;;;19.32;53.86;95814.25;10531093;28;1639;-47
2022/11/07 12:19:23;;;;;;;;;;;;;;;19.34;53.74;95810.34;10532869;28;1406;-47
2022/11/07 12:24:29;;;;;;;;;;;;;;;19.42;54.18;95799.31;10524906;28;1804;-52
2022/11/07 12:29:34;;;;;;;;;;;;;;;19.49;54.35;95791.16;10529476;28;1972;-53
2022/11/07 12:34:41;;;;;;;;;;;;;;;19.61;54.74;95793.50;10492345;28;2038;-52
2022/11/07 12:40:00;;;;;;;;;;;;;;;19.63;56.48;95786.13;10493639;28;2008;-50
2022/11/07 12:45:03;;;;;;;;;;;;;;;19.71;56.79;95790.84;10524189;27;1944;-52
2022/11/07 12:50:03;;;;;;;;;;;;;;;19.75;56.85;95784.78;10494095;28;1956;-52
2022/11/07 12:55:22;;;;;;;;;;;;;;;19.79;57.95;95779.78;10499668;28;1983;-50
2022/11/07 13:00:32;;;;;;;;;;;;;;;19.74;58.10;95777.16;10492472;28;2072;-51
2022/11/07 13:05:33;;;;;;;;;;;;;;;19.80;58.83;95787.41;10488161;28;2045;-52
2022/11/07 13:10:53;;;;;;;;;;;;;;;20.07;58.06;95781.81;10485802;28;1975;-53
2022/11/07 13:16:03;;;;;;;;;;;;;;;20.14;57.62;95787.53;10485848;28;1978;-52
2022/11/07 13:21:04;;;;;;;;;;;;;;;20.01;58.09;95778.38;10487528;28;2023;-49
2022/11/07 13:26:05;;;;;;;;;;;;;;;19.95;57.93;95783.91;10486571;28;2000;-52
2022/11/07 13:31:05;;;;;;;;;;;;;;;19.97;58.08;95787.09;10484410;28;2001;-51
2022/11/07 13:36:14;;;;;;;;;;;;;;;20.01;57.59;95793.41;10483166;28;2036;-47
2022/11/07 13:41:14;;;;;;;;;;;;;;;20.01;58.09;95796.78;10485994;28;2082;-52
2022/11/07 13:46:30;;;;;;;;;;;;;;;20.04;58.69;95798.13;10485020;28;2030;-48
2022/11/07 13:51:34;;;;;;;;;;;;;;;20.16;58.16;95801.22;10483475;28;1971;-52
2022/11/07 13:56:47;;;;;;;;;;;;;;;20.18;57.76;95799.09;10492518;28;2021;-52
2022/11/07 14:01:52;;;;;;;;;;;;;;;20.16;57.86;95802.00;10484111;28;2126;-53
2022/11/07 14:06:56;;;;;;;;;;;;;;;20.12;58.18;95808.06;10485520;28;2034;-53
2022/11/07 14:11:56;;;;;;;;;;;;;;;20.09;58.71;95813.91;10493306;28;2241;-54
2022/11/07 14:16:59;;;;;;;;;;;;;;;20.03;58.00;95805.22;10485181;28;1954;-51
2022/11/07 14:22:00;;;;;;;;;;;;;;;19.99;58.75;95806.03;10489794;28;1956;-51
2022/11/07 14:27:04;;;;;;;;;;;;;;;19.94;57.88;95798.16;10489827;28;1977;-53
2022/11/07 14:32:05;;;;;;;;;;;;;;;19.90;58.87;95802.38;10487961;28;2049;-54
2022/11/07 14:37:05;;;;;;;;;;;;;;;19.84;59.23;95803.44;10492268;28;2007;-56
2022/11/07 14:42:05;;;;;;;;;;;;;;;19.83;60.14;95801.84;10489322;28;1939;-51
2022/11/07 14:47:09;;;;;;;;;;;;;;;19.77;60.37;95798.44;10487270;28;1997;-52
2022/11/07 14:52:26;;;;;;;;;;;;;;;19.74;60.67;95804.22;10484831;28;2188;-53
2022/11/07 14:57:26;;;;;;;;;;;;;;;19.71;60.36;95798.72;10493011;28;2106;-50
2022/11/07 15:02:27;;;;;;;;;;;;;;;19.67;60.69;95789.78;10486361;28;2038;-50
2022/11/07 15:07:29;;;;;;;;;;;;;;;19.71;61.00;95796.09;10486219;28;2053;-52
2022/11/07 15:12:30;;;;;;;;;;;;;;;19.67;61.13;95797.69;10487891;28;1966;-48
2022/11/07 15:17:30;;;;;;;;;;;;;;;19.68;61.34;95794.00;10489608;28;1978;-51
2022/11/07 15:22:36;;;;;;;;;;;;;;;19.65;61.74;95799.78;10492600;28;2062;-52
2022/11/07 15:27:39;;;;;;;;;;;;;;;19.65;62.33;95799.78;10486546;28;2553;-53
2022/11/07 15:32:42;;;;;;;;;;;;;;;19.62;61.71;95793.22;10488295;28;1952;-52
2022/11/07 15:37:58;;;;;;;;;;;;;;;19.60;62.26;95799.81;10486357;28;2069;-54
2022/11/07 15:42:58;;;;;;;;;;;;;;;19.62;61.73;95810.84;10493184;28;2251;-51
2022/11/07 15:47:58;;;;;;;;;;;;;;;19.62;62.56;95808.22;10489921;28;2136;-51
2022/11/07 15:52:58;;;;;;;;;;;;;;;19.62;62.78;95805.59;10494194;28;2071;-52
2022/11/07 15:57:59;;;;;;;;;;;;;;;19.60;62.75;95818.22;10507419;28;2019;-51
2022/11/07 16:02:59;;;;;;;;;;;;;;;19.59;63.37;95814.00;10491229;28;2043;-52
2022/11/07 16:08:01;;;;;;;;;;;;;;;19.56;62.32;95811.91;10492816;28;2062;-51
2022/11/07 16:13:01;;;;;;;;;;;;;;;19.56;62.17;95812.69;10490794;28;2041;-52
2022/11/07 16:18:01;;;;;;;;;;;;;;;19.54;62.14;95814.03;10489135;28;2054;-49
2022/11/07 16:23:05;;;;;;;;;;;;;;;19.55;62.19;95810.34;10493229;28;2079;-52
2022/11/07 16:28:11;;;;;;;;;;;;;;;19.60;62.79;95813.72;10493432;28;2009;-51
2022/11/07 16:33:12;;;;;;;;;;;;;;;19.59;61.92;95816.63;10493049;28;2091;-52
2022/11/07 16:38:12;;;;;;;;;;;;;;;19.57;61.79;95816.13;10494528;28;1974;-49
2022/11/07 16:43:13;;;;;;;;;;;;;;;19.57;61.78;95819.53;10494234;28;2049;-50
2022/11/07 16:48:19;;;;;;;;;;;;;;;19.59;62.00;95824.53;10501303;28;1989;-53
2022/11/07 16:53:19;;;;;;;;;;;;;;;19.61;62.04;95819.78;10498502;28;1932;-53
2022/11/07 16:58:24;;;;;;;;;;;;;;;19.62;62.19;95818.75;10490607;28;2251;-53
2022/11/07 17:03:25;;;;;;;;;;;;;;;19.63;61.86;95815.06;10489454;28;2233;-53
2022/11/07 17:08:27;;;;;;;;;;;;;;;19.63;61.87;95807.97;10488947;28;1979;-50
2022/11/07 17:13:27;;;;;;;;;;;;;;;19.69;61.49;95820.03;10492109;28;1951;-53
2022/11/07 17:18:28;;;;;;;;;;;;;;;19.95;63.74;95818.13;10491738;28;1941;-52
2022/11/07 17:23:29;;;;;;;;;;;;;;;19.93;65.07;95823.66;10492647;28;1951;-54
2022/11/07 17:28:30;;;;;;;;;;;;;;;19.88;63.65;95821.06;10490775;28;2086;-51
2022/11/07 17:33:30;;;;;;;;;;;;;;;19.83;62.52;95821.06;10490828;28;1966;-53
2022/11/07 17:38:31;;;;;;;;;;;;;;;19.81;62.51;95817.13;10491175;28;2127;-54
2022/11/07 17:43:32;;;;;;;;;;;;;;;19.77;62.74;95816.06;10491617;28;1970;-54
2022/11/07 17:48:32;;;;;;;;;;;;;;;19.74;63.00;95824.50;10490465;28;1959;-53
2022/11/07 17:53:32;;;;;;;;;;;;;;;19.71;62.83;95825.03;10495455;28;2088;-52
2022/11/07 17:58:33;;;;;;;;;;;;;;;19.69;62.72;95817.41;10492064;28;2059;-53
2022/11/07 18:03:33;;;;;;;;;;;;;;;19.67;62.29;95814.25;10487241;28;2029;-51
2022/11/07 18:08:34;;;;;;;;;;;;;;;19.66;62.60;95811.91;10488553;28;2081;-54
2022/11/07 18:13:34;;;;;;;;;;;;;;;19.65;62.61;95815.56;10487635;28;2022;-51
2022/11/07 18:18:35;;;;;;;;;;;;;;;19.63;62.54;95804.53;10489930;28;2010;-53
2022/11/07 18:23:35;;;;;;;;;;;;;;;19.62;62.23;95809.00;10494916;28;1932;-53
2022/11/07 18:28:35;;;;;;;;;;;;;;;19.62;62.38;95808.22;10493920;28;2026;-50
2022/11/07 18:33:36;;;;;;;;;;;;;;;19.62;62.63;95813.50;10487002;28;1995;-52
2022/11/07 18:38:36;;;;;;;;;;;;;;;19.62;62.65;95801.09;10487957;28;2014;-52
2022/11/07 18:43:37;;;;;;;;;;;;;;;19.62;61.77;95805.59;10487465;28;1951;-53
2022/11/07 18:48:37;;;;;;;;;;;;;;;19.64;63.07;95792.97;10490655;28;1977;-53
2022/11/07 18:53:37;;;;;;;;;;;;;;;19.63;62.79;95801.91;10491495;28;1952;-50
2022/11/07 18:58:40;;;;;;;;;;;;;;;19.62;62.57;95800.34;10490542;28;1964;-52
2022/11/07 19:03:40;;;;;;;;;;;;;;;19.62;62.79;95800.34;10488661;28;2113;-53
2022/11/07 19:08:40;;;;;;;;;;;;;;;19.61;62.58;95798.75;10488968;28;1999;-53
2022/11/07 19:13:41;;;;;;;;;;;;;;;19.62;62.50;95795.09;10485469;28;1994;-50
2022/11/07 19:18:42;;;;;;;;;;;;;;;19.60;62.78;95799.81;10489116;28;2097;-48
2022/11/07 19:23:42;;;;;;;;;;;;;;;19.61;62.75;95806.63;10491082;28;2022;-48
2022/11/07 19:28:42;;;;;;;;;;;;;;;19.60;62.94;95802.44;10492751;28;2070;-51
2022/11/07 19:33:43;;;;;;;;;;;;;;;19.60;62.84;95810.34;10494008;28;1999;-49
2022/11/07 19:38:43;;;;;;;;;;;;;;;19.59;62.46;95806.13;10492958;28;2007;-49
2022/11/07 19:43:47;;;;;;;;;;;;;;;19.59;62.82;95809.53;10492674;28;2117;-50
2022/11/07 19:48:47;;;;;;;;;;;;;;;19.60;62.72;95800.59;10492938;28;2050;-50
2022/11/07 19:53:53;;;;;;;;;;;;;;;19.60;63.28;95799.81;10493497;28;2065;-48
2022/11/07 19:58:54;;;;;;;;;;;;;;;19.60;62.30;95802.44;10497696;28;1966;-53
2022/11/07 20:03:55;;;;;;;;;;;;;;;19.60;62.33;95807.72;10493148;28;2042;-53
2022/11/07 20:08:55;;;;;;;;;;;;;;;19.59;62.60;95803.47;10491291;28;2146;-50
2022/11/07 20:13:55;;;;;;;;;;;;;;;19.59;62.44;95808.75;10493192;28;1943;-53
2022/11/07 20:18:56;;;;;;;;;;;;;;;19.58;62.00;95818.47;10501692;28;2054;-52
2022/11/07 20:23:58;;;;;;;;;;;;;;;19.59;61.54;95814.00;10489621;28;1947;-53
2022/11/07 20:28:58;;;;;;;;;;;;;;;19.60;61.82;95811.09;10493482;28;1955;-50
2022/11/07 20:33:59;;;;;;;;;;;;;;;19.60;62.31;95816.34;10496252;28;1958;-50
2022/11/07 20:38:59;;;;;;;;;;;;;;;19.61;61.88;95819.78;10491663;28;2066;-46
2022/11/07 20:44:02;;;;;;;;;;;;;;;19.61;61.80;95819.78;10490949;28;2014;-49
2022/11/07 20:49:03;;;;;;;;;;;;;;;19.60;61.20;95819.00;10488524;28;1959;-51
2022/11/07 20:54:03;;;;;;;;;;;;;;;19.61;61.50;95822.41;10496932;28;2049;-51
2022/11/07 20:59:03;;;;;;;;;;;;;;;19.60;61.36;95816.34;10489129;28;1952;-50
2022/11/07 21:04:11;;;;;;;;;;;;;;;19.59;61.45;95816.63;10489367;28;2058;-49
2022/11/07 21:09:11;;;;;;;;;;;;;;;19.58;61.11;95818.47;10481419;28;2050;-50
2022/11/07 21:14:12;;;;;;;;;;;;;;;19.59;60.77;95817.44;10489117;28;2122;-52
2022/11/07 21:19:13;;;;;;;;;;;;;;;19.59;60.55;95816.63;10490734;28;2089;-53
2022/11/07 21:24:14;;;;;;;;;;;;;;;19.58;60.10;95809.81;10488843;28;1975;-51
2022/11/07 21:29:14;;;;;;;;;;;;;;;19.57;59.87;95810.84;10490284;28;2139;-51
2022/11/07 21:34:14;;;;;;;;;;;;;;;19.56;60.50;95810.06;10486768;28;1942;-50
2022/11/07 21:39:16;;;;;;;;;;;;;;;19.53;59.63;95818.50;10490285;28;2007;-52
2022/11/07 21:44:16;;;;;;;;;;;;;;;19.53;60.10;95821.13;10487724;28;1949;-52
2022/11/07 21:49:16;;;;;;;;;;;;;;;19.52;59.81;95821.38;10491800;28;2303;-52
2022/11/07 21:54:17;;;;;;;;;;;;;;;19.48;59.93;95826.38;10490540;28;1959;-50
2022/11/07 21:59:19;;;;;;;;;;;;;;;19.47;59.88;95830.06;10488228;28;2019;-48
2022/11/07 22:04:19;;;;;;;;;;;;;;;19.56;65.14;95817.19;10489643;28;1942;-50
2022/11/07 22:09:21;;;;;;;;;;;;;;;19.56;63.79;95817.19;10488689;28;2169;-50
2022/11/07 22:14:21;;;;;;;;;;;;;;;19.43;61.40;95816.63;10486432;28;1986;-53
2022/11/07 22:19:21;;;;;;;;;;;;;;;19.42;62.56;95815.09;10489603;28;1995;-51
2022/11/07 22:24:24;;;;;;;;;;;;;;;19.38;61.49;95811.41;10488363;28;2018;-49
2022/11/07 22:29:25;;;;;;;;;;;;;;;19.40;61.18;95808.50;10488568;28;1984;-52
2022/11/07 22:34:25;;;;;;;;;;;;;;;19.39;61.56;95802.44;10487426;28;2101;-50
2022/11/07 22:39:25;;;;;;;;;;;;;;;19.38;61.11;95795.63;10487235;28;1962;-51
2022/11/07 22:44:26;;;;;;;;;;;;;;;19.38;62.30;95798.25;10486743;28;2004;-52
2022/11/07 22:49:26;;;;;;;;;;;;;;;19.38;62.08;95784.31;10490883;28;2090;-52
2022/11/07 22:54:26;;;;;;;;;;;;;;;19.37;62.17;95798.53;10489405;28;1998;-51
2022/11/07 22:59:27;;;;;;;;;;;;;;;19.34;61.69;95793.78;10493780;28;2131;-52
2022/11/07 23:04:27;;;;;;;;;;;;;;;19.29;60.21;95791.13;10493043;28;2031;-49
2022/11/07 23:09:27;;;;;;;;;;;;;;;19.30;61.63;95790.88;10493864;28;2235;-46
2022/11/07 23:14:28;;;;;;;;;;;;;;;19.29;61.07;95789.28;10494859;28;2232;-51
2022/11/07 23:19:28;;;;;;;;;;;;;;;19.28;60.40;95787.72;10493885;28;2111;-51
2022/11/07 23:24:29;;;;;;;;;;;;;;;19.26;60.87;95784.56;10494792;28;2279;-47
2022/11/07 23:29:38;;;;;;;;;;;;;;;19.27;60.91;95787.97;10493549;28;2050;-50
2022/11/07 23:34:41;;;;;;;;;;;;;;;19.28;61.72;95771.97;10494390;28;2003;-51
2022/11/07 23:39:42;;;;;;;;;;;;;;;19.26;61.86;95781.94;10498685;28;2070;-50
2022/11/07 23:55:38;;;;;;;;;;;;;;;19.23;63.88;95774.56;10499106;28;2037;-46
